sensor_id;sensor_type;location;lat;lon;timestamp;P1;durP1;ratioP1;P2;durP2;ratioP2
5762;SDS011;2906;53.282;9.508;2023-07-29T00:00:05;15.75;;;8.55;;
5762;SDS011;2906;53.282;9.508;2023-07-29T00:01:07;23.27;;;8.23;;
5762;SDS011;2906;53.282;9.508;2023-07-29T00:02:10;8.68;;;7.60;;
5762;SDS011;2906;53.282;9.508;2023-07-29T00:03:11;14.90;;;9.00;;
5762;SDS011;2906;53.282;9.508;2023-07-29T00:04:13;10.48;;;7.72;;
5762;SDS011;2906;53.282;9.508;2023-07-29T00:05:16;14.40;;;8.07;;
5762;SDS011;2906;53.282;9.508;2023-07-29T00:06:19;12.15;;;9.00;;
5762;SDS011;2906;53.282;9.508;2023-07-29T00:07:20;15.80;;;8.45;;
5762;SDS011;2906;53.282;9.508;2023-07-29T00:08:26;14.40;;;9.10;;
5762;SDS011;2906;53.282;9.508;2023-07-29T00:09:28;11.98;;;9.43;;
5762;SDS011;2906;53.282;9.508;2023-07-29T00:10:30;11.52;;;8.20;;
5762;SDS011;2906;53.282;9.508;2023-07-29T00:11:32;15.23;;;8.27;;
5762;SDS011;2906;53.282;9.508;2023-07-29T00:12:35;10.38;;;8.50;;
5762;SDS011;2906;53.282;9.508;2023-07-29T00:13:36;15.32;;;8.93;;
5762;SDS011;2906;53.282;9.508;2023-07-29T00:14:39;12.05;;;8.23;;
5762;SDS011;2906;53.282;9.508;2023-07-29T00:15:40;12.90;;;8.55;;
5762;SDS011;2906;53.282;9.508;2023-07-29T00:16:42;11.82;;;9.20;;
5762;SDS011;2906;53.282;9.508;2023-07-29T00:17:44;13.15;;;9.00;;
5762;SDS011;2906;53.282;9.508;2023-07-29T00:18:46;10.02;;;8.50;;
5762;SDS011;2906;53.282;9.508;2023-07-29T00:19:47;12.50;;;8.88;;
5762;SDS011;2906;53.282;9.508;2023-07-29T00:20:51;11.85;;;9.35;;
5762;SDS011;2906;53.282;9.508;2023-07-29T00:21:53;15.90;;;9.02;;
5762;SDS011;2906;53.282;9.508;2023-07-29T00:22:55;11.02;;;9.20;;
5762;SDS011;2906;53.282;9.508;2023-07-29T00:23:58;14.48;;;9.55;;
5762;SDS011;2906;53.282;9.508;2023-07-29T00:25:01;15.57;;;9.02;;
5762;SDS011;2906;53.282;9.508;2023-07-29T00:26:02;11.77;;;8.88;;
5762;SDS011;2906;53.282;9.508;2023-07-29T00:27:05;12.55;;;8.43;;
5762;SDS011;2906;53.282;9.508;2023-07-29T00:28:07;12.52;;;9.20;;
5762;SDS011;2906;53.282;9.508;2023-07-29T00:29:09;14.35;;;9.10;;
5762;SDS011;2906;53.282;9.508;2023-07-29T00:30:11;16.80;;;8.45;;
5762;SDS011;2906;53.282;9.508;2023-07-29T00:31:13;16.95;;;9.25;;
5762;SDS011;2906;53.282;9.508;2023-07-29T00:32:15;12.98;;;9.20;;
5762;SDS011;2906;53.282;9.508;2023-07-29T00:33:16;14.65;;;9.75;;
5762;SDS011;2906;53.282;9.508;2023-07-29T00:34:20;12.02;;;8.98;;
5762;SDS011;2906;53.282;9.508;2023-07-29T00:35:21;14.93;;;10.48;;
5762;SDS011;2906;53.282;9.508;2023-07-29T00:36:25;9.38;;;8.35;;
5762;SDS011;2906;53.282;9.508;2023-07-29T00:37:27;15.25;;;10.38;;
5762;SDS011;2906;53.282;9.508;2023-07-29T00:38:30;15.20;;;9.05;;
5762;SDS011;2906;53.282;9.508;2023-07-29T00:39:31;11.45;;;8.82;;
5762;SDS011;2906;53.282;9.508;2023-07-29T00:40:35;17.77;;;9.77;;
5762;SDS011;2906;53.282;9.508;2023-07-29T00:41:38;14.65;;;10.73;;
5762;SDS011;2906;53.282;9.508;2023-07-29T00:42:41;17.52;;;11.05;;
5762;SDS011;2906;53.282;9.508;2023-07-29T00:43:42;20.60;;;10.43;;
5762;SDS011;2906;53.282;9.508;2023-07-29T00:44:45;15.23;;;11.45;;
5762;SDS011;2906;53.282;9.508;2023-07-29T00:45:46;13.93;;;11.18;;
5762;SDS011;2906;53.282;9.508;2023-07-29T00:46:50;22.13;;;11.38;;
5762;SDS011;2906;53.282;9.508;2023-07-29T00:47:51;13.32;;;10.27;;
5762;SDS011;2906;53.282;9.508;2023-07-29T00:48:54;12.40;;;10.38;;
5762;SDS011;2906;53.282;9.508;2023-07-29T00:49:55;14.18;;;11.07;;
5762;SDS011;2906;53.282;9.508;2023-07-29T00:50:58;17.38;;;10.35;;
5762;SDS011;2906;53.282;9.508;2023-07-29T00:52:00;18.70;;;10.73;;
5762;SDS011;2906;53.282;9.508;2023-07-29T00:53:03;27.60;;;10.75;;
5762;SDS011;2906;53.282;9.508;2023-07-29T00:54:04;19.60;;;10.27;;
5762;SDS011;2906;53.282;9.508;2023-07-29T00:55:06;18.52;;;10.55;;
5762;SDS011;2906;53.282;9.508;2023-07-29T00:56:09;13.05;;;10.10;;
5762;SDS011;2906;53.282;9.508;2023-07-29T00:57:10;15.43;;;10.23;;
5762;SDS011;2906;53.282;9.508;2023-07-29T00:58:14;15.98;;;9.85;;
5762;SDS011;2906;53.282;9.508;2023-07-29T00:59:15;14.95;;;10.65;;
5762;SDS011;2906;53.282;9.508;2023-07-29T01:00:18;13.88;;;11.00;;
5762;SDS011;2906;53.282;9.508;2023-07-29T01:01:19;13.18;;;10.48;;
5762;SDS011;2906;53.282;9.508;2023-07-29T01:02:22;18.63;;;9.52;;
5762;SDS011;2906;53.282;9.508;2023-07-29T01:03:23;15.50;;;9.73;;
5762;SDS011;2906;53.282;9.508;2023-07-29T01:04:26;13.18;;;9.52;;
5762;SDS011;2906;53.282;9.508;2023-07-29T01:05:29;19.85;;;10.45;;
5762;SDS011;2906;53.282;9.508;2023-07-29T01:06:34;24.65;;;10.82;;
5762;SDS011;2906;53.282;9.508;2023-07-29T01:07:44;16.88;;;10.23;;
5762;SDS011;2906;53.282;9.508;2023-07-29T01:08:49;16.10;;;10.75;;
5762;SDS011;2906;53.282;9.508;2023-07-29T01:09:55;18.90;;;10.65;;
5762;SDS011;2906;53.282;9.508;2023-07-29T01:11:01;13.77;;;10.13;;
5762;SDS011;2906;53.282;9.508;2023-07-29T01:12:06;19.25;;;11.00;;
5762;SDS011;2906;53.282;9.508;2023-07-29T01:13:13;15.35;;;10.52;;
5762;SDS011;2906;53.282;9.508;2023-07-29T01:14:17;15.15;;;10.50;;
5762;SDS011;2906;53.282;9.508;2023-07-29T01:15:22;13.23;;;9.48;;
5762;SDS011;2906;53.282;9.508;2023-07-29T01:16:26;17.85;;;11.00;;
5762;SDS011;2906;53.282;9.508;2023-07-29T01:17:32;24.52;;;11.02;;
5762;SDS011;2906;53.282;9.508;2023-07-29T01:18:35;14.23;;;10.50;;
5762;SDS011;2906;53.282;9.508;2023-07-29T01:19:43;14.35;;;9.70;;
5762;SDS011;2906;53.282;9.508;2023-07-29T01:20:45;13.98;;;9.60;;
5762;SDS011;2906;53.282;9.508;2023-07-29T01:21:49;15.60;;;9.85;;
5762;SDS011;2906;53.282;9.508;2023-07-29T01:22:52;16.92;;;10.95;;
5762;SDS011;2906;53.282;9.508;2023-07-29T01:23:59;20.98;;;10.73;;
5762;SDS011;2906;53.282;9.508;2023-07-29T01:25:00;17.08;;;10.00;;
5762;SDS011;2906;53.282;9.508;2023-07-29T01:26:03;14.20;;;10.52;;
5762;SDS011;2906;53.282;9.508;2023-07-29T01:27:06;18.27;;;10.82;;
5762;SDS011;2906;53.282;9.508;2023-07-29T01:28:07;25.45;;;10.55;;
5762;SDS011;2906;53.282;9.508;2023-07-29T01:29:10;15.25;;;9.77;;
5762;SDS011;2906;53.282;9.508;2023-07-29T01:30:11;21.10;;;10.35;;
5762;SDS011;2906;53.282;9.508;2023-07-29T01:31:16;16.80;;;11.00;;
5762;SDS011;2906;53.282;9.508;2023-07-29T01:32:22;17.40;;;11.25;;
5762;SDS011;2906;53.282;9.508;2023-07-29T01:33:29;20.35;;;11.20;;
5762;SDS011;2906;53.282;9.508;2023-07-29T01:34:34;17.13;;;11.55;;
5762;SDS011;2906;53.282;9.508;2023-07-29T01:35:40;20.52;;;11.68;;
5762;SDS011;2906;53.282;9.508;2023-07-29T01:36:43;18.40;;;11.27;;
5762;SDS011;2906;53.282;9.508;2023-07-29T01:37:48;19.67;;;12.15;;
5762;SDS011;2906;53.282;9.508;2023-07-29T01:38:50;15.13;;;10.93;;
5762;SDS011;2906;53.282;9.508;2023-07-29T01:39:56;16.15;;;10.63;;
5762;SDS011;2906;53.282;9.508;2023-07-29T01:40:58;17.05;;;11.07;;
5762;SDS011;2906;53.282;9.508;2023-07-29T01:42:02;19.70;;;10.60;;
5762;SDS011;2906;53.282;9.508;2023-07-29T01:43:04;23.40;;;11.90;;
5762;SDS011;2906;53.282;9.508;2023-07-29T01:44:07;15.57;;;11.60;;
5762;SDS011;2906;53.282;9.508;2023-07-29T01:45:09;15.57;;;11.60;;
5762;SDS011;2906;53.282;9.508;2023-07-29T01:46:12;17.85;;;12.18;;
5762;SDS011;2906;53.282;9.508;2023-07-29T01:47:15;21.38;;;12.00;;
5762;SDS011;2906;53.282;9.508;2023-07-29T01:48:17;21.00;;;11.18;;
5762;SDS011;2906;53.282;9.508;2023-07-29T01:49:19;21.95;;;10.95;;
5762;SDS011;2906;53.282;9.508;2023-07-29T01:50:22;20.00;;;11.77;;
5762;SDS011;2906;53.282;9.508;2023-07-29T01:51:23;17.60;;;11.20;;
5762;SDS011;2906;53.282;9.508;2023-07-29T01:52:26;19.42;;;10.98;;
5762;SDS011;2906;53.282;9.508;2023-07-29T01:53:27;15.90;;;11.20;;
5762;SDS011;2906;53.282;9.508;2023-07-29T01:54:29;28.30;;;12.52;;
5762;SDS011;2906;53.282;9.508;2023-07-29T01:55:32;14.48;;;11.38;;
5762;SDS011;2906;53.282;9.508;2023-07-29T01:56:35;15.95;;;11.30;;
5762;SDS011;2906;53.282;9.508;2023-07-29T01:57:37;13.02;;;10.32;;
5762;SDS011;2906;53.282;9.508;2023-07-29T01:58:39;32.55;;;11.45;;
5762;SDS011;2906;53.282;9.508;2023-07-29T01:59:41;13.20;;;10.82;;
5762;SDS011;2906;53.282;9.508;2023-07-29T02:00:44;18.33;;;11.50;;
5762;SDS011;2906;53.282;9.508;2023-07-29T02:01:45;17.67;;;12.25;;
5762;SDS011;2906;53.282;9.508;2023-07-29T02:02:49;14.88;;;11.73;;
5762;SDS011;2906;53.282;9.508;2023-07-29T02:03:50;22.52;;;11.60;;
5762;SDS011;2906;53.282;9.508;2023-07-29T02:04:55;19.15;;;11.95;;
5762;SDS011;2906;53.282;9.508;2023-07-29T02:05:56;19.88;;;12.05;;
5762;SDS011;2906;53.282;9.508;2023-07-29T02:06:59;25.75;;;11.73;;
5762;SDS011;2906;53.282;9.508;2023-07-29T02:08:00;16.95;;;12.20;;
5762;SDS011;2906;53.282;9.508;2023-07-29T02:09:03;25.52;;;11.98;;
5762;SDS011;2906;53.282;9.508;2023-07-29T02:10:05;16.77;;;12.73;;
5762;SDS011;2906;53.282;9.508;2023-07-29T02:11:09;18.13;;;11.93;;
5762;SDS011;2906;53.282;9.508;2023-07-29T02:12:10;26.60;;;12.80;;
5762;SDS011;2906;53.282;9.508;2023-07-29T02:13:13;26.77;;;11.50;;
5762;SDS011;2906;53.282;9.508;2023-07-29T02:14:14;21.77;;;13.05;;
5762;SDS011;2906;53.282;9.508;2023-07-29T02:15:17;29.30;;;14.55;;
5762;SDS011;2906;53.282;9.508;2023-07-29T02:16:19;18.33;;;12.65;;
5762;SDS011;2906;53.282;9.508;2023-07-29T02:17:21;17.88;;;12.10;;
5762;SDS011;2906;53.282;9.508;2023-07-29T02:18:22;20.23;;;12.93;;
5762;SDS011;2906;53.282;9.508;2023-07-29T02:19:25;19.70;;;14.15;;
5762;SDS011;2906;53.282;9.508;2023-07-29T02:20:26;22.35;;;12.35;;
5762;SDS011;2906;53.282;9.508;2023-07-29T02:21:29;19.92;;;12.98;;
5762;SDS011;2906;53.282;9.508;2023-07-29T02:22:30;23.95;;;12.90;;
5762;SDS011;2906;53.282;9.508;2023-07-29T02:23:32;20.38;;;12.75;;
5762;SDS011;2906;53.282;9.508;2023-07-29T02:24:34;16.65;;;12.90;;
5762;SDS011;2906;53.282;9.508;2023-07-29T02:25:36;22.20;;;13.15;;
5762;SDS011;2906;53.282;9.508;2023-07-29T02:26:39;24.08;;;14.15;;
5762;SDS011;2906;53.282;9.508;2023-07-29T02:27:44;23.02;;;13.05;;
5762;SDS011;2906;53.282;9.508;2023-07-29T02:28:45;19.33;;;12.55;;
5762;SDS011;2906;53.282;9.508;2023-07-29T02:29:47;28.45;;;13.20;;
5762;SDS011;2906;53.282;9.508;2023-07-29T02:30:53;28.20;;;13.20;;
5762;SDS011;2906;53.282;9.508;2023-07-29T02:32:18;18.25;;;12.93;;
5762;SDS011;2906;53.282;9.508;2023-07-29T02:33:19;18.48;;;12.98;;
5762;SDS011;2906;53.282;9.508;2023-07-29T02:34:21;25.02;;;13.18;;
5762;SDS011;2906;53.282;9.508;2023-07-29T02:35:23;20.95;;;12.82;;
5762;SDS011;2906;53.282;9.508;2023-07-29T02:36:25;23.10;;;14.20;;
5762;SDS011;2906;53.282;9.508;2023-07-29T02:37:27;25.35;;;13.93;;
5762;SDS011;2906;53.282;9.508;2023-07-29T02:38:28;26.13;;;14.25;;
5762;SDS011;2906;53.282;9.508;2023-07-29T02:39:31;24.05;;;12.88;;
5762;SDS011;2906;53.282;9.508;2023-07-29T02:40:32;26.55;;;12.57;;
5762;SDS011;2906;53.282;9.508;2023-07-29T02:41:35;21.40;;;13.35;;
5762;SDS011;2906;53.282;9.508;2023-07-29T02:42:37;26.98;;;13.20;;
5762;SDS011;2906;53.282;9.508;2023-07-29T02:43:41;23.88;;;13.25;;
5762;SDS011;2906;53.282;9.508;2023-07-29T02:44:43;25.58;;;14.35;;
5762;SDS011;2906;53.282;9.508;2023-07-29T02:45:45;20.10;;;13.48;;
5762;SDS011;2906;53.282;9.508;2023-07-29T02:46:46;26.42;;;14.13;;
5762;SDS011;2906;53.282;9.508;2023-07-29T02:47:49;22.02;;;14.15;;
5762;SDS011;2906;53.282;9.508;2023-07-29T02:48:50;23.13;;;13.95;;
5762;SDS011;2906;53.282;9.508;2023-07-29T02:49:53;24.25;;;13.55;;
5762;SDS011;2906;53.282;9.508;2023-07-29T02:50:54;20.40;;;13.02;;
5762;SDS011;2906;53.282;9.508;2023-07-29T02:51:57;39.17;;;14.45;;
5762;SDS011;2906;53.282;9.508;2023-07-29T02:52:58;26.08;;;14.70;;
5762;SDS011;2906;53.282;9.508;2023-07-29T02:54:01;29.77;;;15.32;;
5762;SDS011;2906;53.282;9.508;2023-07-29T02:55:03;25.60;;;15.02;;
5762;SDS011;2906;53.282;9.508;2023-07-29T02:56:05;26.13;;;15.73;;
5762;SDS011;2906;53.282;9.508;2023-07-29T02:57:09;23.65;;;14.88;;
5762;SDS011;2906;53.282;9.508;2023-07-29T02:58:16;27.15;;;14.52;;
5762;SDS011;2906;53.282;9.508;2023-07-29T02:59:17;25.17;;;13.43;;
5762;SDS011;2906;53.282;9.508;2023-07-29T03:00:20;28.30;;;15.43;;
5762;SDS011;2906;53.282;9.508;2023-07-29T03:01:22;23.42;;;14.80;;
5762;SDS011;2906;53.282;9.508;2023-07-29T03:02:25;25.95;;;14.50;;
5762;SDS011;2906;53.282;9.508;2023-07-29T03:03:27;24.70;;;14.48;;
5762;SDS011;2906;53.282;9.508;2023-07-29T03:04:29;25.73;;;15.60;;
5762;SDS011;2906;53.282;9.508;2023-07-29T03:05:30;26.35;;;15.48;;
5762;SDS011;2906;53.282;9.508;2023-07-29T03:06:33;21.83;;;14.80;;
5762;SDS011;2906;53.282;9.508;2023-07-29T03:07:34;25.20;;;15.75;;
5762;SDS011;2906;53.282;9.508;2023-07-29T03:08:37;37.90;;;15.70;;
5762;SDS011;2906;53.282;9.508;2023-07-29T03:09:38;27.95;;;13.95;;
5762;SDS011;2906;53.282;9.508;2023-07-29T03:10:42;27.13;;;16.27;;
5762;SDS011;2906;53.282;9.508;2023-07-29T03:11:43;27.70;;;15.25;;
5762;SDS011;2906;53.282;9.508;2023-07-29T03:12:46;25.40;;;16.50;;
5762;SDS011;2906;53.282;9.508;2023-07-29T03:13:48;29.13;;;16.10;;
5762;SDS011;2906;53.282;9.508;2023-07-29T03:14:51;24.67;;;15.77;;
5762;SDS011;2906;53.282;9.508;2023-07-29T03:15:52;27.48;;;14.70;;
5762;SDS011;2906;53.282;9.508;2023-07-29T03:16:54;29.90;;;16.75;;
5762;SDS011;2906;53.282;9.508;2023-07-29T03:17:56;28.23;;;15.25;;
5762;SDS011;2906;53.282;9.508;2023-07-29T03:18:58;24.95;;;15.27;;
5762;SDS011;2906;53.282;9.508;2023-07-29T03:20:00;28.25;;;14.70;;
5762;SDS011;2906;53.282;9.508;2023-07-29T03:21:03;38.22;;;15.95;;
5762;SDS011;2906;53.282;9.508;2023-07-29T03:22:04;35.20;;;14.80;;
5762;SDS011;2906;53.282;9.508;2023-07-29T03:23:07;27.00;;;15.95;;
5762;SDS011;2906;53.282;9.508;2023-07-29T03:24:08;33.92;;;15.57;;
5762;SDS011;2906;53.282;9.508;2023-07-29T03:25:11;32.88;;;15.68;;
5762;SDS011;2906;53.282;9.508;2023-07-29T03:26:13;31.50;;;16.00;;
5762;SDS011;2906;53.282;9.508;2023-07-29T03:27:15;25.40;;;15.45;;
5762;SDS011;2906;53.282;9.508;2023-07-29T03:28:17;33.58;;;16.27;;
5762;SDS011;2906;53.282;9.508;2023-07-29T03:29:21;27.92;;;16.30;;
5762;SDS011;2906;53.282;9.508;2023-07-29T03:30:22;32.38;;;15.95;;
5762;SDS011;2906;53.282;9.508;2023-07-29T03:31:25;36.55;;;15.43;;
5762;SDS011;2906;53.282;9.508;2023-07-29T03:32:26;33.53;;;16.08;;
5762;SDS011;2906;53.282;9.508;2023-07-29T03:33:28;30.60;;;16.08;;
5762;SDS011;2906;53.282;9.508;2023-07-29T03:34:30;31.35;;;15.63;;
5762;SDS011;2906;53.282;9.508;2023-07-29T03:35:32;28.02;;;16.13;;
5762;SDS011;2906;53.282;9.508;2023-07-29T03:36:34;29.83;;;16.45;;
5762;SDS011;2906;53.282;9.508;2023-07-29T03:37:36;34.53;;;15.32;;
5762;SDS011;2906;53.282;9.508;2023-07-29T03:38:38;26.73;;;16.45;;
5762;SDS011;2906;53.282;9.508;2023-07-29T03:39:40;32.90;;;15.55;;
5762;SDS011;2906;53.282;9.508;2023-07-29T03:40:42;28.48;;;16.23;;
5762;SDS011;2906;53.282;9.508;2023-07-29T03:41:44;30.95;;;15.40;;
5762;SDS011;2906;53.282;9.508;2023-07-29T03:42:46;34.22;;;16.48;;
5762;SDS011;2906;53.282;9.508;2023-07-29T03:43:48;41.60;;;16.20;;
5762;SDS011;2906;53.282;9.508;2023-07-29T03:44:51;25.63;;;14.80;;
5762;SDS011;2906;53.282;9.508;2023-07-29T03:45:53;28.73;;;16.35;;
5762;SDS011;2906;53.282;9.508;2023-07-29T03:46:55;31.88;;;15.27;;
5762;SDS011;2906;53.282;9.508;2023-07-29T03:47:57;30.50;;;15.55;;
5762;SDS011;2906;53.282;9.508;2023-07-29T03:48:59;26.88;;;15.85;;
5762;SDS011;2906;53.282;9.508;2023-07-29T03:50:01;27.92;;;15.90;;
5762;SDS011;2906;53.282;9.508;2023-07-29T03:51:04;30.05;;;15.75;;
5762;SDS011;2906;53.282;9.508;2023-07-29T03:52:06;25.92;;;15.52;;
5762;SDS011;2906;53.282;9.508;2023-07-29T03:53:09;27.75;;;15.75;;
5762;SDS011;2906;53.282;9.508;2023-07-29T03:54:10;30.17;;;16.63;;
5762;SDS011;2906;53.282;9.508;2023-07-29T03:55:12;28.17;;;15.57;;
5762;SDS011;2906;53.282;9.508;2023-07-29T03:56:14;35.33;;;15.57;;
5762;SDS011;2906;53.282;9.508;2023-07-29T03:57:16;36.60;;;16.60;;
5762;SDS011;2906;53.282;9.508;2023-07-29T03:58:20;25.55;;;14.73;;
5762;SDS011;2906;53.282;9.508;2023-07-29T03:59:23;26.10;;;15.75;;
5762;SDS011;2906;53.282;9.508;2023-07-29T04:00:26;24.33;;;15.35;;
5762;SDS011;2906;53.282;9.508;2023-07-29T04:01:31;26.40;;;16.13;;
5762;SDS011;2906;53.282;9.508;2023-07-29T04:02:33;27.35;;;14.82;;
5762;SDS011;2906;53.282;9.508;2023-07-29T04:03:37;27.98;;;15.50;;
5762;SDS011;2906;53.282;9.508;2023-07-29T04:04:39;24.02;;;15.20;;
5762;SDS011;2906;53.282;9.508;2023-07-29T04:05:44;32.17;;;16.50;;
5762;SDS011;2906;53.282;9.508;2023-07-29T04:06:45;30.08;;;16.15;;
5762;SDS011;2906;53.282;9.508;2023-07-29T04:07:47;41.78;;;16.13;;
5762;SDS011;2906;53.282;9.508;2023-07-29T04:08:49;31.83;;;16.92;;
5762;SDS011;2906;53.282;9.508;2023-07-29T04:09:51;31.58;;;16.73;;
5762;SDS011;2906;53.282;9.508;2023-07-29T04:10:53;29.23;;;15.70;;
5762;SDS011;2906;53.282;9.508;2023-07-29T04:11:57;31.05;;;16.08;;
5762;SDS011;2906;53.282;9.508;2023-07-29T04:12:59;52.28;;;18.02;;
5762;SDS011;2906;53.282;9.508;2023-07-29T04:14:02;34.22;;;16.65;;
5762;SDS011;2906;53.282;9.508;2023-07-29T04:15:03;31.23;;;16.10;;
5762;SDS011;2906;53.282;9.508;2023-07-29T04:16:07;29.08;;;16.02;;
5762;SDS011;2906;53.282;9.508;2023-07-29T04:17:09;27.60;;;15.43;;
5762;SDS011;2906;53.282;9.508;2023-07-29T04:18:11;34.55;;;16.33;;
5762;SDS011;2906;53.282;9.508;2023-07-29T04:19:12;33.17;;;16.35;;
5762;SDS011;2906;53.282;9.508;2023-07-29T04:20:15;31.08;;;17.90;;
5762;SDS011;2906;53.282;9.508;2023-07-29T04:21:16;31.85;;;16.90;;
5762;SDS011;2906;53.282;9.508;2023-07-29T04:22:19;29.65;;;15.77;;
5762;SDS011;2906;53.282;9.508;2023-07-29T04:23:20;26.35;;;16.40;;
5762;SDS011;2906;53.282;9.508;2023-07-29T04:24:22;29.88;;;16.98;;
5762;SDS011;2906;53.282;9.508;2023-07-29T04:25:24;37.83;;;17.27;;
5762;SDS011;2906;53.282;9.508;2023-07-29T04:26:26;31.95;;;17.05;;
5762;SDS011;2906;53.282;9.508;2023-07-29T04:27:28;36.50;;;17.25;;
5762;SDS011;2906;53.282;9.508;2023-07-29T04:28:30;29.30;;;16.40;;
5762;SDS011;2906;53.282;9.508;2023-07-29T04:29:32;36.15;;;17.33;;
5762;SDS011;2906;53.282;9.508;2023-07-29T04:30:35;32.47;;;16.80;;
5762;SDS011;2906;53.282;9.508;2023-07-29T04:31:38;25.98;;;16.65;;
5762;SDS011;2906;53.282;9.508;2023-07-29T04:32:40;32.45;;;15.48;;
5762;SDS011;2906;53.282;9.508;2023-07-29T04:33:42;36.03;;;17.52;;
5762;SDS011;2906;53.282;9.508;2023-07-29T04:34:43;30.23;;;16.48;;
5762;SDS011;2906;53.282;9.508;2023-07-29T04:35:46;34.08;;;16.30;;
5762;SDS011;2906;53.282;9.508;2023-07-29T04:36:47;31.27;;;15.13;;
5762;SDS011;2906;53.282;9.508;2023-07-29T04:37:50;30.52;;;16.60;;
5762;SDS011;2906;53.282;9.508;2023-07-29T04:38:52;28.42;;;16.05;;
5762;SDS011;2906;53.282;9.508;2023-07-29T04:39:54;31.95;;;16.98;;
5762;SDS011;2906;53.282;9.508;2023-07-29T04:40:55;36.65;;;16.35;;
5762;SDS011;2906;53.282;9.508;2023-07-29T04:42:01;32.72;;;17.00;;
5762;SDS011;2906;53.282;9.508;2023-07-29T04:43:02;38.40;;;17.38;;
5762;SDS011;2906;53.282;9.508;2023-07-29T04:44:04;40.80;;;17.33;;
5762;SDS011;2906;53.282;9.508;2023-07-29T04:45:06;25.77;;;16.95;;
5762;SDS011;2906;53.282;9.508;2023-07-29T04:46:08;37.67;;;16.90;;
5762;SDS011;2906;53.282;9.508;2023-07-29T04:47:11;24.45;;;15.40;;
5762;SDS011;2906;53.282;9.508;2023-07-29T04:48:14;32.40;;;16.52;;
5762;SDS011;2906;53.282;9.508;2023-07-29T04:49:16;36.28;;;17.52;;
5762;SDS011;2906;53.282;9.508;2023-07-29T04:50:18;26.40;;;16.65;;
5762;SDS011;2906;53.282;9.508;2023-07-29T04:51:20;27.85;;;15.80;;
5762;SDS011;2906;53.282;9.508;2023-07-29T04:52:23;32.08;;;16.63;;
5762;SDS011;2906;53.282;9.508;2023-07-29T04:53:25;31.42;;;16.75;;
5762;SDS011;2906;53.282;9.508;2023-07-29T04:54:27;35.70;;;16.80;;
5762;SDS011;2906;53.282;9.508;2023-07-29T04:55:28;26.95;;;16.23;;
5762;SDS011;2906;53.282;9.508;2023-07-29T04:56:31;29.88;;;15.57;;
5762;SDS011;2906;53.282;9.508;2023-07-29T04:57:32;30.52;;;16.05;;
5762;SDS011;2906;53.282;9.508;2023-07-29T04:58:36;29.00;;;15.98;;
5762;SDS011;2906;53.282;9.508;2023-07-29T04:59:40;33.92;;;17.25;;
5762;SDS011;2906;53.282;9.508;2023-07-29T05:00:41;28.27;;;16.27;;
5762;SDS011;2906;53.282;9.508;2023-07-29T05:01:44;37.38;;;17.52;;
5762;SDS011;2906;53.282;9.508;2023-07-29T05:02:47;27.27;;;15.93;;
5762;SDS011;2906;53.282;9.508;2023-07-29T05:03:49;30.25;;;16.38;;
5762;SDS011;2906;53.282;9.508;2023-07-29T05:04:51;26.63;;;14.90;;
5762;SDS011;2906;53.282;9.508;2023-07-29T05:05:53;29.70;;;16.13;;
5762;SDS011;2906;53.282;9.508;2023-07-29T05:06:55;28.67;;;15.85;;
5762;SDS011;2906;53.282;9.508;2023-07-29T05:07:58;35.00;;;16.80;;
5762;SDS011;2906;53.282;9.508;2023-07-29T05:09:00;30.70;;;16.83;;
5762;SDS011;2906;53.282;9.508;2023-07-29T05:10:14;29.38;;;15.90;;
5762;SDS011;2906;53.282;9.508;2023-07-29T05:11:16;27.65;;;15.00;;
5762;SDS011;2906;53.282;9.508;2023-07-29T05:12:20;24.77;;;15.77;;
5762;SDS011;2906;53.282;9.508;2023-07-29T05:13:22;27.65;;;16.25;;
5762;SDS011;2906;53.282;9.508;2023-07-29T05:14:24;26.23;;;14.50;;
5762;SDS011;2906;53.282;9.508;2023-07-29T05:15:26;21.60;;;13.90;;
5762;SDS011;2906;53.282;9.508;2023-07-29T05:16:28;23.85;;;14.35;;
5762;SDS011;2906;53.282;9.508;2023-07-29T05:17:30;30.48;;;15.45;;
5762;SDS011;2906;53.282;9.508;2023-07-29T05:18:34;23.02;;;14.90;;
5762;SDS011;2906;53.282;9.508;2023-07-29T05:19:35;23.83;;;14.65;;
5762;SDS011;2906;53.282;9.508;2023-07-29T05:20:38;29.95;;;15.98;;
5762;SDS011;2906;53.282;9.508;2023-07-29T05:21:39;29.13;;;15.65;;
5762;SDS011;2906;53.282;9.508;2023-07-29T05:22:42;22.98;;;14.55;;
5762;SDS011;2906;53.282;9.508;2023-07-29T05:23:43;33.05;;;14.70;;
5762;SDS011;2906;53.282;9.508;2023-07-29T05:24:46;31.20;;;15.80;;
5762;SDS011;2906;53.282;9.508;2023-07-29T05:25:48;28.10;;;15.70;;
5762;SDS011;2906;53.282;9.508;2023-07-29T05:26:51;27.20;;;14.82;;
5762;SDS011;2906;53.282;9.508;2023-07-29T05:27:52;23.10;;;14.45;;
5762;SDS011;2906;53.282;9.508;2023-07-29T05:28:54;25.52;;;15.07;;
5762;SDS011;2906;53.282;9.508;2023-07-29T05:29:56;25.70;;;15.23;;
5762;SDS011;2906;53.282;9.508;2023-07-29T05:31:00;29.77;;;15.10;;
5762;SDS011;2906;53.282;9.508;2023-07-29T05:32:02;29.77;;;15.50;;
5762;SDS011;2906;53.282;9.508;2023-07-29T05:33:03;27.00;;;15.30;;
5762;SDS011;2906;53.282;9.508;2023-07-29T05:34:09;24.83;;;14.50;;
5762;SDS011;2906;53.282;9.508;2023-07-29T05:35:10;34.67;;;15.48;;
5762;SDS011;2906;53.282;9.508;2023-07-29T05:36:13;26.48;;;14.93;;
5762;SDS011;2906;53.282;9.508;2023-07-29T05:37:14;29.65;;;15.05;;
5762;SDS011;2906;53.282;9.508;2023-07-29T05:38:17;28.73;;;14.98;;
5762;SDS011;2906;53.282;9.508;2023-07-29T05:39:18;36.55;;;15.77;;
5762;SDS011;2906;53.282;9.508;2023-07-29T05:40:23;38.45;;;15.52;;
5762;SDS011;2906;53.282;9.508;2023-07-29T05:41:24;26.30;;;15.40;;
5762;SDS011;2906;53.282;9.508;2023-07-29T05:42:28;38.20;;;17.15;;
5762;SDS011;2906;53.282;9.508;2023-07-29T05:43:30;29.33;;;16.23;;
5762;SDS011;2906;53.282;9.508;2023-07-29T05:44:34;26.23;;;15.68;;
5762;SDS011;2906;53.282;9.508;2023-07-29T05:45:37;28.75;;;15.27;;
5762;SDS011;2906;53.282;9.508;2023-07-29T05:46:38;30.58;;;15.55;;
5762;SDS011;2906;53.282;9.508;2023-07-29T05:47:40;24.90;;;14.75;;
5762;SDS011;2906;53.282;9.508;2023-07-29T05:48:42;39.28;;;16.38;;
5762;SDS011;2906;53.282;9.508;2023-07-29T05:49:46;43.05;;;15.07;;
5762;SDS011;2906;53.282;9.508;2023-07-29T05:50:47;31.90;;;14.07;;
5762;SDS011;2906;53.282;9.508;2023-07-29T05:51:49;28.90;;;14.45;;
5762;SDS011;2906;53.282;9.508;2023-07-29T05:52:53;32.80;;;15.65;;
5762;SDS011;2906;53.282;9.508;2023-07-29T05:53:54;28.30;;;13.80;;
5762;SDS011;2906;53.282;9.508;2023-07-29T05:54:57;22.38;;;14.20;;
5762;SDS011;2906;53.282;9.508;2023-07-29T05:55:58;25.77;;;14.25;;
5762;SDS011;2906;53.282;9.508;2023-07-29T05:57:03;32.65;;;15.10;;
5762;SDS011;2906;53.282;9.508;2023-07-29T05:58:07;25.60;;;14.50;;
5762;SDS011;2906;53.282;9.508;2023-07-29T05:59:10;28.15;;;14.88;;
5762;SDS011;2906;53.282;9.508;2023-07-29T06:00:12;28.33;;;14.13;;
5762;SDS011;2906;53.282;9.508;2023-07-29T06:01:14;23.70;;;14.45;;
5762;SDS011;2906;53.282;9.508;2023-07-29T06:02:16;32.08;;;15.05;;
5762;SDS011;2906;53.282;9.508;2023-07-29T06:03:18;29.67;;;14.10;;
5762;SDS011;2906;53.282;9.508;2023-07-29T06:04:20;28.73;;;14.15;;
5762;SDS011;2906;53.282;9.508;2023-07-29T06:05:24;24.60;;;14.15;;
5762;SDS011;2906;53.282;9.508;2023-07-29T06:06:25;25.67;;;13.95;;
5762;SDS011;2906;53.282;9.508;2023-07-29T06:07:28;40.50;;;14.75;;
5762;SDS011;2906;53.282;9.508;2023-07-29T06:08:30;23.48;;;13.73;;
5762;SDS011;2906;53.282;9.508;2023-07-29T06:09:34;25.15;;;13.25;;
5762;SDS011;2906;53.282;9.508;2023-07-29T06:10:36;33.38;;;13.80;;
5762;SDS011;2906;53.282;9.508;2023-07-29T06:11:38;26.92;;;14.25;;
5762;SDS011;2906;53.282;9.508;2023-07-29T06:12:40;23.13;;;15.20;;
5762;SDS011;2906;53.282;9.508;2023-07-29T06:13:42;22.73;;;13.57;;
5762;SDS011;2906;53.282;9.508;2023-07-29T06:14:44;21.60;;;13.60;;
5762;SDS011;2906;53.282;9.508;2023-07-29T06:15:45;20.95;;;14.20;;
5762;SDS011;2906;53.282;9.508;2023-07-29T06:16:48;26.42;;;14.55;;
5762;SDS011;2906;53.282;9.508;2023-07-29T06:17:49;22.48;;;14.40;;